Saint-Eustache, Canada
Current Conditions -  °F | °C
As of 12:00 AM on Saturday 20 Dec 2014 (Local Time) from CYMX Reporting Station
Clear Clear  
Wind Chill:   Ceiling: Unl
Heat Index:   Visibility: 25mi
Dew Point:   Wind: 3mph
Humidity: 85%   Direction: 250°WSW
Pressure: 30.24"   Gusts: NA
Location:  45.57°N, 73.9°W
Report Text: CYMX 200500Z 25003KT 25SM SKC M14/M16 A3024 RMK SLP246
Loading
Personal Weather Stations






























Interactive Weather Map New forecast layout! Learn more

10-Day Weather Forecast

Advertisements
Track Severe Weather on mobile